Time;durP1;ratioP1;P1;durP2;ratioP2;P2;SDS_P1;SDS_P2;PMS_P1;PMS_P2;Temp;Humidity;BMP_temperature;BMP_pressure;BME280_temperature;BME280_humidity;BME280_pressure;Samples;Min_cycle;Max_cycle;Signal;HPM_P1;HPM_P2
2024/01/27 00:01:14;;;;;;;1.20;1.10;;;2.70;99.90;;;;;;5157478;27;20080;-66
2024/01/27 00:03:40;;;;;;;1.30;1.20;;;2.70;99.90;;;;;;5139200;27;20079;-67
2024/01/27 00:06:06;;;;;;;1.20;1.10;;;2.70;99.90;;;;;;5157199;27;20043;-66
2024/01/27 00:08:31;;;;;;;1.20;1.10;;;2.70;99.90;;;;;;5157191;27;20058;-66
2024/01/27 00:10:57;;;;;;;1.20;1.10;;;2.70;99.90;;;;;;5157274;27;20050;-67
2024/01/27 00:13:22;;;;;;;1.13;1.02;;;2.60;99.90;;;;;;5156859;27;20481;-67
2024/01/27 00:15:48;;;;;;;1.25;1.15;;;2.70;99.90;;;;;;5157389;27;20038;-68
2024/01/27 00:18:16;;;;;;;1.30;1.20;;;2.70;99.90;;;;;;5157145;27;20408;-69
2024/01/27 00:20:41;;;;;;;1.20;1.10;;;2.60;99.90;;;;;;5157082;27;20042;-68
2024/01/27 00:23:08;;;;;;;1.20;1.10;;;2.60;99.90;;;;;;5156958;27;20049;-67
2024/01/27 00:25:33;;;;;;;1.30;1.20;;;2.60;99.90;;;;;;5156765;27;20038;-67
2024/01/27 00:27:59;;;;;;;1.40;1.30;;;3.90;99.90;;;;;;5156731;27;20312;-67
2024/01/27 00:30:25;;;;;;;1.20;1.10;;;2.70;99.90;;;;;;5157445;27;20439;-68
2024/01/27 00:32:51;;;;;;;1.73;1.60;;;2.70;99.90;;;;;;5157033;27;20102;-66
2024/01/27 00:35:16;;;;;;;1.20;1.10;;;2.70;99.90;;;;;;5156769;27;20043;-67
2024/01/27 00:37:42;;;;;;;1.98;1.83;;;2.70;99.90;;;;;;5156623;27;20467;-69
2024/01/27 00:40:09;;;;;;;1.30;1.20;;;2.80;99.90;;;;;;5156761;27;20046;-68
2024/01/27 00:42:35;;;;;;;1.20;1.10;;;2.80;99.90;;;;;;5156409;27;20043;-68
2024/01/27 00:45:00;;;;;;;1.20;1.10;;;2.80;99.90;;;;;;5156406;27;20035;-66
2024/01/27 00:47:26;;;;;;;1.40;1.30;;;2.70;99.90;;;;;;5156553;27;20081;-67
2024/01/27 00:49:54;;;;;;;1.20;1.10;;;2.70;99.90;;;;;;5156429;27;20195;-66
2024/01/27 00:52:19;;;;;;;1.20;1.10;;;2.70;99.90;;;;;;5156451;27;20054;-68
2024/01/27 00:54:45;;;;;;;1.30;1.20;;;2.70;99.90;;;;;;5156027;27;20060;-69
2024/01/27 00:57:10;;;;;;;1.30;1.20;;;2.70;99.90;;;;;;5156185;27;20087;-68
2024/01/27 00:59:36;;;;;;;1.30;1.20;;;2.70;99.90;;;;;;5156217;27;20085;-69
2024/01/27 01:02:02;;;;;;;1.27;1.17;;;2.70;99.90;;;;;;5156214;27;20058;-67
2024/01/27 01:04:28;;;;;;;1.20;1.10;;;2.70;99.90;;;;;;5156045;27;20035;-68
2024/01/27 01:06:53;;;;;;;1.30;1.20;;;2.70;99.90;;;;;;5155968;27;20047;-70
2024/01/27 01:09:19;;;;;;;1.30;1.20;;;2.70;99.90;;;;;;5155322;27;20043;-69
2024/01/27 01:11:44;;;;;;;1.67;1.55;;;2.60;99.90;;;;;;5155733;27;20053;-67
2024/01/27 01:14:10;;;;;;;1.30;1.20;;;2.60;99.90;;;;;;5155887;27;20042;-66
2024/01/27 01:16:36;;;;;;;1.40;1.30;;;2.60;99.90;;;;;;5137543;27;20060;-68
2024/01/27 01:19:01;;;;;;;1.27;1.17;;;2.60;99.90;;;;;;5155991;27;20082;-67
2024/01/27 01:21:28;;;;;;;1.30;1.20;;;2.60;99.90;;;;;;5156008;27;20541;-67
2024/01/27 01:23:54;;;;;;;1.40;1.30;;;2.50;99.90;;;;;;5155964;27;20371;-68
2024/01/27 01:26:19;;;;;;;1.30;1.20;;;2.50;99.90;;;;;;5155519;27;20083;-67
2024/01/27 01:28:45;;;;;;;1.30;1.20;;;2.50;99.90;;;;;;5155782;27;20504;-68
2024/01/27 01:31:11;;;;;;;1.50;1.40;;;2.50;99.90;;;;;;5137321;27;20042;-67
2024/01/27 01:33:36;;;;;;;1.27;1.17;;;2.50;99.90;;;;;;5155929;27;20130;-68
2024/01/27 01:36:02;;;;;;;1.73;1.63;;;2.50;99.90;;;;;;5155264;27;20359;-68
2024/01/27 01:38:28;;;;;;;1.20;1.10;;;2.50;99.90;;;;;;5155681;27;20038;-67
2024/01/27 01:40:53;;;;;;;1.30;1.20;;;2.50;99.90;;;;;;5155495;27;20440;-68
2024/01/27 01:43:19;;;;;;;1.30;1.20;;;2.50;99.90;;;;;;5155581;27;20046;-69
2024/01/27 01:45:44;;;;;;;1.30;1.20;;;2.40;99.90;;;;;;5155355;27;20394;-69
2024/01/27 01:48:10;;;;;;;1.25;1.15;;;2.40;99.90;;;;;;5155449;27;20042;-68
2024/01/27 01:50:35;;;;;;;1.30;1.20;;;2.40;99.90;;;;;;5155216;27;20455;-69
2024/01/27 01:53:01;;;;;;;1.50;1.40;;;2.40;99.90;;;;;;5155323;27;20106;-66
2024/01/27 01:55:27;;;;;;;1.30;1.20;;;2.40;99.90;;;;;;5155047;27;20094;-68
2024/01/27 01:57:53;;;;;;;1.40;1.30;;;2.40;99.90;;;;;;5155028;27;20042;-67
2024/01/27 02:00:19;;;;;;;1.30;1.20;;;2.40;99.90;;;;;;5155360;27;20059;-67
2024/01/27 02:02:45;;;;;;;1.30;1.20;;;2.40;99.90;;;;;;5155178;27;20455;-68
2024/01/27 02:05:12;;;;;;;3.05;2.85;;;2.40;99.90;;;;;;5155104;27;20042;-66
2024/01/27 02:07:38;;;;;;;1.30;1.20;;;2.40;99.90;;;;;;5155244;27;20507;-67
2024/01/27 02:10:05;;;;;;;1.25;1.15;;;2.30;99.90;;;;;;5155248;27;20130;-68
2024/01/27 02:12:30;;;;;;;1.33;1.23;;;2.30;99.90;;;;;;5155083;27;20050;-68
2024/01/27 02:14:56;;;;;;;1.40;1.30;;;2.30;99.90;;;;;;5155087;27;20047;-69
2024/01/27 02:17:21;;;;;;;1.30;1.20;;;2.30;99.90;;;;;;5155044;27;20504;-69
2024/01/27 02:19:47;;;;;;;1.30;1.20;;;2.30;99.90;;;;;;5155796;27;20073;-66
2024/01/27 02:22:12;;;;;;;1.30;1.20;;;2.30;99.90;;;;;;5159363;27;20043;-69
2024/01/27 02:24:38;;;;;;;1.30;1.20;;;2.30;99.90;;;;;;5159173;27;20492;-69
2024/01/27 02:27:04;;;;;;;1.30;1.20;;;2.20;99.90;;;;;;5158927;27;20038;-68
2024/01/27 02:29:29;;;;;;;1.35;1.25;;;2.20;99.90;;;;;;5159157;27;20129;-66
2024/01/27 02:31:55;;;;;;;1.30;1.20;;;2.20;99.90;;;;;;5159112;27;20050;-67
2024/01/27 02:34:21;;;;;;;1.20;1.10;;;2.20;99.90;;;;;;5159437;27;20439;-67
2024/01/27 02:36:47;;;;;;;1.20;1.10;;;2.10;99.90;;;;;;5158815;27;20175;-69
2024/01/27 02:39:12;;;;;;;1.40;1.30;;;2.10;99.90;;;;;;5159056;27;20045;-66
2024/01/27 02:41:39;;;;;;;1.40;1.30;;;2.10;99.90;;;;;;5159007;27;20083;-67
2024/01/27 02:44:05;;;;;;;1.40;1.30;;;2.10;99.90;;;;;;5140075;27;20545;-68
2024/01/27 02:46:31;;;;;;;1.80;1.70;;;2.10;99.90;;;;;;5158948;27;20055;-68
2024/01/27 02:48:57;;;;;;;1.40;1.30;;;2.10;99.90;;;;;;5158514;27;20486;-68
2024/01/27 02:51:22;;;;;;;1.30;1.20;;;2.00;99.90;;;;;;5158712;27;20051;-68
2024/01/27 02:53:48;;;;;;;1.30;1.20;;;2.00;99.90;;;;;;5158744;27;20474;-67
2024/01/27 02:56:16;;;;;;;1.30;1.20;;;2.00;99.90;;;;;;5158241;27;20045;-68
2024/01/27 02:58:42;;;;;;;1.30;1.20;;;2.00;99.90;;;;;;5158915;27;20382;-69
2024/01/27 03:01:08;;;;;;;1.30;1.20;;;2.00;99.90;;;;;;5158505;27;20042;-68
2024/01/27 03:03:33;;;;;;;1.40;1.30;;;1.90;99.90;;;;;;5158542;27;20458;-67
2024/01/27 03:05:59;;;;;;;1.30;1.20;;;1.90;99.90;;;;;;5158483;27;20088;-68
2024/01/27 03:08:24;;;;;;;1.30;1.20;;;1.90;99.90;;;;;;5158448;27;20039;-69
2024/01/27 03:10:50;;;;;;;1.30;1.20;;;1.90;99.90;;;;;;5158222;27;20043;-69
2024/01/27 03:13:16;;;;;;;1.40;1.30;;;1.90;99.90;;;;;;5158875;27;20042;-68
2024/01/27 03:15:43;;;;;;;1.30;1.20;;;1.90;99.90;;;;;;5140040;27;20047;-66
2024/01/27 03:18:08;;;;;;;1.50;1.40;;;1.90;99.90;;;;;;5158396;27;20046;-66
2024/01/27 03:20:34;;;;;;;1.40;1.30;;;1.90;99.90;;;;;;5158227;27;20047;-68
2024/01/27 03:23:00;;;;;;;1.40;1.30;;;1.80;99.90;;;;;;5158131;27;20435;-67
2024/01/27 03:25:25;;;;;;;1.30;1.20;;;1.80;99.90;;;;;;5157701;27;20078;-68
2024/01/27 03:27:52;;;;;;;1.30;1.20;;;1.80;99.90;;;;;;5139789;27;20390;-66
2024/01/27 03:30:17;;;;;;;1.40;1.30;;;1.80;99.90;;;;;;5140016;27;20405;-66
2024/01/27 03:32:43;;;;;;;1.40;1.30;;;1.80;99.90;;;;;;5157196;27;20129;-67
2024/01/27 03:35:08;;;;;;;1.40;1.30;;;1.80;99.90;;;;;;5157919;27;20049;-66
2024/01/27 03:37:34;;;;;;;1.40;1.30;;;1.80;99.90;;;;;;5157676;27;20078;-69
2024/01/27 03:40:00;;;;;;;1.40;1.30;;;1.80;99.90;;;;;;5157590;27;20087;-67
2024/01/27 03:42:26;;;;;;;1.30;1.20;;;1.80;99.90;;;;;;5157789;27;20042;-68
2024/01/27 03:44:52;;;;;;;1.30;1.20;;;1.80;99.90;;;;;;5157683;27;20035;-68
2024/01/27 03:47:18;;;;;;;2.20;2.10;;;1.80;99.90;;;;;;5157519;27;20042;-66
2024/01/27 03:49:43;;;;;;;1.40;1.30;;;1.70;99.90;;;;;;5139063;27;20054;-68
2024/01/27 03:52:10;;;;;;;1.30;1.20;;;1.70;99.90;;;;;;5138743;27;20405;-67
2024/01/27 03:54:37;;;;;;;1.30;1.20;;;1.70;99.90;;;;;;5157457;27;20397;-66
2024/01/27 03:57:03;;;;;;;1.30;1.20;;;1.90;99.90;;;;;;5138735;27;20402;-69
2024/01/27 03:59:29;;;;;;;1.77;1.67;;;1.70;99.90;;;;;;5157344;27;20035;-67
2024/01/27 04:01:55;;;;;;;1.40;1.30;;;1.70;99.90;;;;;;5157657;27;20465;-67
2024/01/27 04:04:20;;;;;;;1.40;1.30;;;2.40;99.90;;;;;;5157442;27;20041;-68
2024/01/27 04:06:46;;;;;;;1.30;1.20;;;1.70;99.90;;;;;;5138889;27;20047;-68
2024/01/27 04:09:12;;;;;;;1.40;1.30;;;1.60;99.90;;;;;;5157231;27;20457;-66
2024/01/27 04:11:38;;;;;;;1.40;1.30;;;1.60;99.90;;;;;;5157152;27;20051;-67
2024/01/27 04:14:05;;;;;;;1.40;1.30;;;2.90;99.90;;;;;;5157131;27;20086;-67
2024/01/27 04:16:31;;;;;;;1.40;1.30;;;1.60;99.90;;;;;;5157121;27;20035;-67
2024/01/27 04:18:57;;;;;;;1.30;1.20;;;1.60;99.90;;;;;;5157068;27;20054;-68
2024/01/27 04:21:22;;;;;;;1.40;1.30;;;1.60;99.90;;;;;;5138500;27;20046;-69
2024/01/27 04:23:48;;;;;;;1.33;1.23;;;1.60;99.90;;;;;;5156972;27;20057;-68
2024/01/27 04:26:14;;;;;;;1.30;1.20;;;1.60;99.90;;;;;;5156548;27;20047;-68
2024/01/27 04:28:39;;;;;;;1.25;1.15;;;1.60;99.90;;;;;;5156883;27;20482;-67
2024/01/27 04:31:05;;;;;;;1.95;1.85;;;1.60;99.90;;;;;;5156868;27;20402;-67
2024/01/27 04:33:31;;;;;;;1.30;1.20;;;1.60;99.90;;;;;;5156724;27;20039;-67
2024/01/27 04:35:58;;;;;;;1.38;1.27;;;1.60;99.90;;;;;;5156605;27;20062;-69
2024/01/27 04:38:24;;;;;;;1.30;1.20;;;1.60;99.90;;;;;;5156418;27;20083;-66
2024/01/27 04:40:50;;;;;;;1.30;1.20;;;1.60;99.90;;;;;;5156529;27;20043;-68
2024/01/27 04:43:16;;;;;;;3.00;2.80;;;1.60;99.90;;;;;;5155353;27;20539;-68
2024/01/27 04:45:42;;;;;;;1.30;1.20;;;1.60;99.90;;;;;;5156312;27;20083;-68
2024/01/27 04:48:08;;;;;;;1.30;1.20;;;1.60;99.90;;;;;;5156495;27;20042;-66
2024/01/27 04:50:34;;;;;;;1.30;1.20;;;1.60;99.90;;;;;;5156544;27;20058;-67
2024/01/27 04:53:00;;;;;;;1.40;1.30;;;1.60;99.90;;;;;;5137924;27;20043;-69
2024/01/27 04:55:26;;;;;;;1.50;1.40;;;1.60;99.90;;;;;;5137700;27;20047;-66
2024/01/27 04:57:52;;;;;;;2.00;1.90;;;1.60;99.90;;;;;;5156220;27;20046;-66
2024/01/27 05:00:17;;;;;;;1.30;1.20;;;1.60;99.90;;;;;;5156324;27;20122;-67
2024/01/27 05:02:43;;;;;;;1.40;1.30;;;2.00;99.90;;;;;;5156191;27;20099;-67
2024/01/27 05:05:09;;;;;;;1.40;1.30;;;1.60;99.90;;;;;;5156372;27;20053;-68
2024/01/27 05:07:34;;;;;;;1.60;1.50;;;1.60;99.90;;;;;;5156767;27;20465;-69
2024/01/27 05:10:00;;;;;;;1.40;1.30;;;1.60;99.90;;;;;;5156076;27;20042;-69
2024/01/27 05:12:26;;;;;;;1.30;1.20;;;1.60;99.90;;;;;;5156124;27;20039;-68
2024/01/27 05:14:51;;;;;;;1.40;1.30;;;1.50;99.90;;;;;;5155874;27;20049;-66
2024/01/27 05:17:17;;;;;;;1.30;1.20;;;1.50;99.90;;;;;;5155968;27;20046;-70
2024/01/27 05:19:43;;;;;;;2.60;2.40;;;1.50;99.90;;;;;;5137546;27;20397;-69
2024/01/27 05:22:09;;;;;;;1.38;1.27;;;1.50;99.90;;;;;;5155745;27;20561;-68
2024/01/27 05:24:34;;;;;;;1.40;1.30;;;1.50;99.90;;;;;;5155819;27;20126;-69
2024/01/27 05:27:00;;;;;;;1.30;1.20;;;1.50;99.90;;;;;;5137175;27;20047;-69
2024/01/27 05:29:29;;;;;;;1.35;1.25;;;1.50;99.90;;;;;;5155723;27;20134;-69
2024/01/27 05:31:55;;;;;;;1.30;1.20;;;1.50;99.90;;;;;;5156221;27;20119;-66
2024/01/27 05:34:20;;;;;;;1.20;1.10;;;1.50;99.90;;;;;;5155980;27;20479;-68
2024/01/27 05:36:47;;;;;;;1.33;1.23;;;1.40;99.90;;;;;;5155356;27;20437;-68
2024/01/27 05:39:14;;;;;;;1.25;1.15;;;1.40;99.90;;;;;;5155605;27;20035;-67
2024/01/27 05:41:39;;;;;;;1.30;1.20;;;1.40;99.90;;;;;;5155548;27;20038;-66
2024/01/27 05:44:05;;;;;;;1.30;1.20;;;1.40;99.90;;;;;;5155893;27;20087;-68
2024/01/27 05:46:31;;;;;;;1.30;1.20;;;1.40;99.90;;;;;;5155442;27;20125;-66
2024/01/27 05:49:01;;;;;;;5.97;3.08;;;1.50;99.90;;;;;;5155372;27;20056;-66
2024/01/27 05:51:27;;;;;;;1.35;1.25;;;1.40;99.90;;;;;;5155440;27;20100;-69
2024/01/27 05:53:52;;;;;;;1.23;1.13;;;1.50;99.90;;;;;;5155396;27;20051;-68
2024/01/27 05:56:21;;;;;;;1.30;1.20;;;1.40;99.90;;;;;;5155310;27;20138;-67
2024/01/27 05:58:47;;;;;;;1.25;1.15;;;1.40;99.90;;;;;;5154952;27;20095;-71
2024/01/27 06:01:13;;;;;;;1.30;1.20;;;1.40;99.90;;;;;;5155165;27;20476;-71
2024/01/27 06:03:42;;;;;;;1.40;1.30;;;1.40;99.90;;;;;;5153823;27;20126;-68
2024/01/27 06:06:07;;;;;;;1.30;1.20;;;1.40;99.90;;;;;;5154838;27;20035;-67
2024/01/27 06:08:33;;;;;;;1.67;1.55;;;1.30;99.90;;;;;;5154315;27;20043;-67
2024/01/27 06:10:59;;;;;;;1.40;1.30;;;1.30;99.90;;;;;;5154610;27;20424;-67
2024/01/27 06:13:24;;;;;;;1.30;1.20;;;1.30;99.90;;;;;;5150076;27;20083;-71
2024/01/27 06:15:50;;;;;;;1.30;1.20;;;1.30;99.90;;;;;;5154164;27;20561;-68
2024/01/27 06:18:16;;;;;;;1.30;1.20;;;1.30;99.90;;;;;;5153891;27;20536;-68
2024/01/27 06:20:42;;;;;;;1.30;1.20;;;1.30;99.90;;;;;;5154155;27;20066;-65
2024/01/27 06:23:08;;;;;;;1.30;1.20;;;1.30;99.90;;;;;;5154302;27;20064;-66
2024/01/27 06:25:34;;;;;;;1.30;1.20;;;1.30;99.90;;;;;;5135010;27;20075;-66
2024/01/27 06:28:00;;;;;;;1.30;1.20;;;1.30;99.90;;;;;;5154409;27;20276;-77
2024/01/27 06:30:26;;;;;;;1.40;1.30;;;1.30;99.90;;;;;;5154262;27;20039;-66
2024/01/27 06:32:51;;;;;;;1.63;1.52;;;1.20;99.90;;;;;;5154736;27;20035;-69
2024/01/27 06:35:17;;;;;;;6.50;6.03;;;1.20;99.90;;;;;;5154588;27;20038;-66
2024/01/27 06:37:43;;;;;;;1.30;1.20;;;1.20;99.90;;;;;;5119375;27;20125;-66
2024/01/27 06:40:09;;;;;;;1.30;1.20;;;1.20;99.90;;;;;;5154050;27;20089;-68
2024/01/27 06:42:35;;;;;;;1.30;1.20;;;1.20;99.90;;;;;;5154839;27;20053;-69
2024/01/27 06:45:01;;;;;;;1.38;1.27;;;1.20;99.90;;;;;;5154357;27;20042;-70
2024/01/27 06:47:27;;;;;;;1.20;1.10;;;1.10;99.90;;;;;;5154552;27;20065;-67
2024/01/27 06:49:52;;;;;;;1.30;1.20;;;1.10;99.90;;;;;;5154540;27;20054;-72
2024/01/27 06:52:18;;;;;;;1.38;1.27;;;1.10;99.90;;;;;;5154209;27;20051;-71
2024/01/27 06:54:44;;;;;;;1.30;1.20;;;1.10;99.90;;;;;;5153534;27;20047;-70
2024/01/27 06:57:23;;;;;;;1.25;1.15;;;1.10;99.90;;;;;;5154205;27;20101;-70
2024/01/27 06:59:52;;;;;;;1.30;1.20;;;1.10;99.90;;;;;;5154496;27;20034;-73
2024/01/27 07:02:28;;;;;;;1.25;1.15;;;1.10;99.90;;;;;;5154521;27;20057;-72
2024/01/27 07:04:54;;;;;;;1.30;1.20;;;1.10;99.90;;;;;;5136218;27;20058;-74
2024/01/27 07:07:26;;;;;;;1.20;1.10;;;1.00;99.90;;;;;;5155514;27;20102;-75
2024/01/27 07:09:52;;;;;;;1.30;1.20;;;1.10;99.90;;;;;;5139409;27;20539;-69
2024/01/27 07:12:18;;;;;;;1.30;1.20;;;1.10;99.90;;;;;;5158164;27;20082;-70
2024/01/27 07:14:44;;;;;;;1.20;1.10;;;1.10;99.90;;;;;;5156901;27;20418;-69
2024/01/27 07:17:09;;;;;;;1.30;1.20;;;1.00;99.90;;;;;;5158300;27;20038;-68
2024/01/27 07:19:35;;;;;;;2.55;2.35;;;1.00;99.90;;;;;;5156910;27;20038;-68
2024/01/27 07:22:00;;;;;;;1.20;1.10;;;1.00;99.90;;;;;;5157900;27;20089;-70
2024/01/27 07:24:26;;;;;;;1.20;1.10;;;1.00;99.90;;;;;;5156550;27;20057;-70
2024/01/27 07:26:52;;;;;;;1.30;1.20;;;1.00;99.90;;;;;;5155876;27;20031;-70
2024/01/27 07:29:18;;;;;;;1.20;1.10;;;1.00;99.90;;;;;;5156005;27;20095;-73
2024/01/27 07:31:43;;;;;;;1.30;1.20;;;1.00;99.90;;;;;;5155260;27;20054;-77
2024/01/27 07:34:09;;;;;;;1.73;1.50;;;1.00;99.90;;;;;;5134269;27;20071;-68
2024/01/27 07:36:35;;;;;;;1.25;1.15;;;1.00;99.90;;;;;;5157789;27;20073;-69
2024/01/27 07:39:00;;;;;;;1.38;1.27;;;1.40;99.90;;;;;;5157305;27;20038;-67
2024/01/27 07:41:26;;;;;;;1.20;1.10;;;1.00;99.90;;;;;;5157610;27;20106;-69
2024/01/27 07:43:54;;;;;;;1.30;1.20;;;1.00;99.90;;;;;;5139318;27;20039;-67
2024/01/27 07:46:21;;;;;;;1.20;1.10;;;1.00;99.90;;;;;;5157697;27;20039;-68
2024/01/27 07:48:48;;;;;;;1.45;1.20;;;1.00;99.90;;;;;;5157512;27;20046;-68
2024/01/27 07:51:13;;;;;;;1.30;1.20;;;1.00;99.90;;;;;;5157129;27;20051;-67
2024/01/27 07:53:39;;;;;;;1.25;1.15;;;1.00;99.90;;;;;;5157127;27;20053;-68
2024/01/27 07:56:06;;;;;;;1.30;1.20;;;1.00;99.90;;;;;;5157539;27;20381;-67
2024/01/27 07:58:32;;;;;;;1.20;1.10;;;1.10;99.90;;;;;;5157677;27;20114;-68
2024/01/27 08:00:58;;;;;;;1.33;1.23;;;1.10;99.90;;;;;;5156651;27;20554;-70
2024/01/27 08:03:23;;;;;;;1.50;1.40;;;1.10;99.90;;;;;;5157356;27;20049;-72
2024/01/27 08:05:49;;;;;;;1.30;1.20;;;1.10;99.90;;;;;;5156977;27;20035;-72
2024/01/27 08:08:15;;;;;;;1.35;1.25;;;1.10;99.90;;;;;;5156611;27;20091;-67
2024/01/27 08:10:41;;;;;;;1.30;1.20;;;1.10;99.90;;;;;;5157139;27;20047;-67
2024/01/27 08:13:07;;;;;;;1.23;1.13;;;1.20;99.90;;;;;;5157103;27;20405;-72
2024/01/27 08:15:32;;;;;;;1.20;1.10;;;1.20;99.90;;;;;;5156514;27;20039;-67
2024/01/27 08:17:58;;;;;;;1.30;1.20;;;1.20;99.90;;;;;;5156762;27;20060;-71
2024/01/27 08:20:23;;;;;;;1.30;1.20;;;1.20;99.90;;;;;;5156981;27;20482;-68
2024/01/27 08:22:51;;;;;;;1.30;1.20;;;1.20;99.90;;;;;;5156331;27;20046;-70
2024/01/27 08:25:17;;;;;;;1.48;1.38;;;1.30;99.90;;;;;;5156448;27;20043;-69
2024/01/27 08:27:43;;;;;;;1.30;1.20;;;1.30;99.90;;;;;;5157531;27;20043;-68
2024/01/27 08:30:09;;;;;;;1.20;1.10;;;1.30;99.90;;;;;;5154100;27;20045;-68
2024/01/27 08:32:35;;;;;;;1.20;1.10;;;1.40;99.90;;;;;;5154706;27;20042;-68
2024/01/27 08:35:01;;;;;;;1.20;1.10;;;1.40;99.90;;;;;;5154629;27;20046;-68
2024/01/27 08:37:27;;;;;;;1.30;1.20;;;1.40;99.90;;;;;;5154748;27;20474;-68
2024/01/27 08:39:53;;;;;;;1.30;1.20;;;1.50;99.90;;;;;;5155020;27;20130;-68
2024/01/27 08:42:18;;;;;;;1.40;1.30;;;1.50;99.90;;;;;;5156238;27;20043;-68
2024/01/27 08:44:44;;;;;;;1.30;1.20;;;1.60;99.90;;;;;;5156099;27;20498;-68
2024/01/27 08:47:12;;;;;;;1.27;1.17;;;1.60;99.90;;;;;;5155889;27;20046;-68
2024/01/27 08:49:38;;;;;;;1.20;1.10;;;1.70;99.90;;;;;;5155743;27;20053;-69
2024/01/27 08:52:03;;;;;;;1.20;1.10;;;1.70;99.90;;;;;;5155881;27;20050;-68
2024/01/27 08:54:29;;;;;;;1.30;1.20;;;1.80;99.90;;;;;;5156898;27;20046;-68
2024/01/27 08:56:55;;;;;;;1.30;1.20;;;1.80;99.90;;;;;;5156445;27;20039;-68
2024/01/27 08:59:20;;;;;;;1.30;1.20;;;1.90;99.90;;;;;;5156309;27;20039;-68
2024/01/27 09:01:46;;;;;;;1.40;1.30;;;1.90;99.90;;;;;;5156295;27;20061;-68
2024/01/27 09:04:12;;;;;;;2.60;2.40;;;2.00;99.90;;;;;;5155951;27;20042;-68
2024/01/27 09:06:38;;;;;;;1.20;1.10;;;2.00;99.90;;;;;;5156321;27;20529;-68
2024/01/27 09:09:03;;;;;;;1.83;1.73;;;2.10;99.90;;;;;;5156182;27;20478;-68
2024/01/27 09:11:30;;;;;;;1.20;1.10;;;2.10;99.90;;;;;;5156120;27;20046;-68
2024/01/27 09:13:56;;;;;;;1.20;1.10;;;2.20;99.90;;;;;;5156341;27;20047;-69
2024/01/27 09:16:22;;;;;;;1.20;1.10;;;2.20;99.90;;;;;;5156060;27;20084;-68
2024/01/27 09:18:50;;;;;;;1.20;1.10;;;2.30;99.90;;;;;;5156189;27;20082;-69
2024/01/27 09:21:20;;;;;;;1.20;1.10;;;2.40;99.90;;;;;;5155970;27;20047;-69
2024/01/27 09:23:46;;;;;;;1.20;1.10;;;2.40;99.90;;;;;;5156334;27;20047;-68
2024/01/27 09:26:12;;;;;;;1.30;1.20;;;2.50;99.90;;;;;;5155804;27;20082;-68
2024/01/27 09:28:43;;;;;;;1.40;1.30;;;2.60;99.90;;;;;;5156075;27;20066;-69
2024/01/27 09:31:10;;;;;;;2.25;2.10;;;2.60;99.90;;;;;;5154854;27;20153;-69
2024/01/27 09:33:36;;;;;;;1.10;1.00;;;2.70;99.90;;;;;;5155612;27;20047;-68
2024/01/27 09:36:01;;;;;;;1.30;1.20;;;3.70;99.90;;;;;;5155410;27;20390;-69
2024/01/27 09:38:28;;;;;;;1.10;1.00;;;2.80;99.90;;;;;;5137513;27;20077;-68
2024/01/27 09:40:54;;;;;;;1.10;1.00;;;2.90;99.90;;;;;;5155543;27;20046;-68
2024/01/27 09:43:21;;;;;;;1.55;1.45;;;2.90;99.90;;;;;;5155359;27;20443;-69
2024/01/27 09:45:46;;;;;;;;;;;3.00;99.90;;;;;;5155635;27;20072;-68
2024/01/27 09:48:13;;;;;;;1.30;1.20;;;3.00;99.90;;;;;;5155194;27;19918;-69
2024/01/27 09:50:41;;;;;;;1.58;1.48;;;3.10;99.90;;;;;;5155260;27;20063;-69
2024/01/27 09:53:08;;;;;;;1.30;1.20;;;3.20;99.90;;;;;;5137179;27;20410;-69
2024/01/27 09:55:34;;;;;;;1.10;1.00;;;3.30;99.90;;;;;;5155486;27;20054;-69
2024/01/27 09:58:01;;;;;;;1.30;1.20;;;3.40;99.90;;;;;;5155304;27;20047;-69
2024/01/27 10:00:27;;;;;;;1.10;1.00;;;3.40;99.90;;;;;;5154945;27;20050;-69
2024/01/27 10:02:54;;;;;;;1.10;1.00;;;3.50;99.90;;;;;;5136493;27;20051;-68
2024/01/27 10:05:21;;;;;;;1.40;1.30;;;3.50;99.90;;;;;;5136187;27;20431;-68
2024/01/27 10:07:48;;;;;;;1.10;1.00;;;3.60;99.90;;;;;;5155242;27;20046;-69
2024/01/27 10:10:13;;;;;;;1.30;1.20;;;3.60;99.90;;;;;;5154903;27;20502;-69
2024/01/27 10:12:42;;;;;;;1.20;1.10;;;3.70;99.90;;;;;;5155279;27;20039;-69
2024/01/27 10:15:28;;;;;;;1.38;1.27;;;3.80;99.90;;;;;;5154852;27;20053;-68
2024/01/27 10:18:07;;;;;;;1.20;1.10;;;4.90;99.90;;;;;;5136656;27;20052;-71
2024/01/27 10:20:33;;;;;;;1.10;1.00;;;3.90;99.90;;;;;;5155267;27;20502;-69
2024/01/27 10:23:09;;;;;;;2.10;1.90;;;4.00;99.90;;;;;;5154868;27;20478;-70
2024/01/27 10:25:38;;;;;;;2.50;2.40;;;4.10;99.90;;;;;;5154921;27;20453;-69
2024/01/27 10:28:06;;;;;;;1.10;1.00;;;4.10;99.90;;;;;;5155048;27;20409;-70
2024/01/27 10:30:32;;;;;;;1.10;1.00;;;4.20;99.90;;;;;;5155049;27;20038;-69
2024/01/27 10:32:57;;;;;;;0.90;0.90;;;4.30;99.90;;;;;;5154794;27;20088;-69
2024/01/27 10:35:23;;;;;;;1.30;1.20;;;4.30;99.90;;;;;;5154523;27;20045;-71
2024/01/27 10:37:53;;;;;;;1.20;1.10;;;4.40;99.90;;;;;;5154738;27;20431;-69
2024/01/27 10:40:19;;;;;;;0.90;0.90;;;4.40;99.90;;;;;;5154868;27;20072;-70
2024/01/27 10:42:45;;;;;;;2.00;1.90;;;4.50;99.90;;;;;;5158777;27;20091;-69
2024/01/27 10:45:12;;;;;;;2.07;1.97;;;4.60;99.90;;;;;;5158895;27;20031;-69
2024/01/27 10:47:39;;;;;;;1.25;1.15;;;4.60;99.90;;;;;;5140444;27;20645;-69
2024/01/27 10:50:08;;;;;;;;;;;4.70;99.90;;;;;;5159649;27;20102;-70
2024/01/27 10:52:37;;;;;;;1.65;1.55;;;4.80;99.90;;;;;;5159121;27;19964;-70
2024/01/27 10:55:06;;;;;;;1.73;1.10;;;4.90;99.90;;;;;;5155857;27;20117;-70
2024/01/27 10:57:36;;;;;;;1.38;1.20;;;4.90;99.90;;;;;;5157717;27;20402;-70
2024/01/27 11:00:05;;;;;;;1.10;1.00;;;4.80;99.90;;;;;;5158275;27;20413;-70
2024/01/27 11:02:33;;;;;;;1.05;1.02;;;5.10;99.90;;;;;;5158411;27;20034;-71
2024/01/27 11:05:03;;;;;;;1.88;1.55;;;5.10;99.90;;;;;;5158554;27;20042;-71
2024/01/27 11:07:34;;;;;;;1.35;1.25;;;5.20;99.90;;;;;;5158244;27;20367;-70
2024/01/27 11:10:00;;;;;;;0.95;0.95;;;5.30;99.90;;;;;;5157758;27;20041;-70
2024/01/27 11:12:26;;;;;;;0.90;0.90;;;5.30;99.90;;;;;;5139618;27;20046;-70
2024/01/27 11:14:52;;;;;;;1.10;1.00;;;5.40;99.90;;;;;;5158390;27;20377;-78
2024/01/27 11:17:19;;;;;;;1.38;1.27;;;5.50;99.90;;;;;;5158583;27;20045;-72
2024/01/27 11:19:46;;;;;;;1.23;1.13;;;5.50;99.90;;;;;;5158253;27;20095;-68
2024/01/27 11:22:26;;;;;;;1.35;1.25;;;5.60;99.90;;;;;;5158181;27;20049;-69
2024/01/27 11:25:05;;;;;;;0.90;0.90;;;6.00;99.90;;;;;;5158083;27;20126;-70
2024/01/27 11:27:30;;;;;;;1.10;1.00;;;5.70;99.90;;;;;;5140004;27;20470;-71
2024/01/27 11:29:56;;;;;;;0.90;0.90;;;5.80;99.90;;;;;;5158089;27;20086;-71
2024/01/27 11:32:21;;;;;;;0.93;0.93;;;5.80;99.90;;;;;;5157251;27;20133;-71
2024/01/27 11:34:47;;;;;;;1.02;1.00;;;5.90;99.90;;;;;;5158272;27;20030;-69
2024/01/27 11:37:17;;;;;;;1.20;1.10;;;5.90;99.90;;;;;;5158411;27;20050;-70
2024/01/27 11:39:43;;;;;;;0.90;0.90;;;6.00;99.90;;;;;;5157782;27;20042;-70
2024/01/27 11:42:12;;;;;;;0.90;0.90;;;6.10;99.90;;;;;;5157825;27;20436;-70
2024/01/27 11:44:39;;;;;;;1.20;1.10;;;6.10;99.90;;;;;;5156603;27;20038;-68
2024/01/27 11:47:06;;;;;;;1.20;1.10;;;6.20;99.90;;;;;;5137143;27;20082;-68
2024/01/27 11:49:33;;;;;;;1.08;1.00;;;6.30;99.90;;;;;;5155474;27;20117;-68
2024/01/27 11:51:59;;;;;;;2.55;1.67;;;6.30;99.90;;;;;;5156521;27;20054;-70
2024/01/27 11:54:24;;;;;;;1.20;1.10;;;6.40;99.90;;;;;;5156499;27;20034;-70
2024/01/27 11:56:50;;;;;;;0.90;0.90;;;6.50;99.90;;;;;;5156819;27;20047;-68
2024/01/27 11:59:16;;;;;;;1.42;1.33;;;6.40;99.90;;;;;;5157317;27;20047;-70
2024/01/27 12:01:41;;;;;;;1.08;1.00;;;6.60;99.90;;;;;;5157424;27;20045;-68
2024/01/27 12:04:09;;;;;;;0.90;0.90;;;6.60;99.90;;;;;;5157493;27;20449;-67
2024/01/27 12:06:35;;;;;;;0.85;0.85;;;7.40;99.90;;;;;;5138955;27;20042;-67
2024/01/27 12:09:00;;;;;;;0.90;0.90;;;7.60;99.90;;;;;;5138907;27;20042;-68
2024/01/27 12:11:26;;;;;;;2.33;2.13;;;6.80;99.90;;;;;;5157323;27;20411;-67
2024/01/27 12:13:53;;;;;;;0.80;0.80;;;6.80;99.90;;;;;;5157505;27;20082;-68
2024/01/27 12:16:21;;;;;;;0.90;0.90;;;6.90;99.90;;;;;;5157306;27;20038;-70
2024/01/27 12:18:47;;;;;;;0.90;0.90;;;7.00;99.90;;;;;;5157007;27;20509;-68
2024/01/27 12:21:12;;;;;;;0.80;0.80;;;7.00;99.90;;;;;;5157133;27;20039;-68
2024/01/27 12:23:55;;;;;;;1.75;1.65;;;7.00;99.90;;;;;;5157102;27;20047;-68
2024/01/27 12:26:29;;;;;;;5.65;2.85;;;7.10;99.90;;;;;;5138857;27;20141;-68
2024/01/27 12:28:55;;;;;;;3.33;1.65;;;7.10;99.90;;;;;;5156905;27;20127;-68
2024/01/27 12:31:22;;;;;;;1.10;1.00;;;7.70;99.90;;;;;;5156764;27;20529;-68
2024/01/27 12:33:50;;;;;;;0.90;0.90;;;7.20;99.90;;;;;;5156786;27;20095;-68
2024/01/27 12:36:17;;;;;;;0.98;0.98;;;7.30;99.90;;;;;;5156844;27;20039;-68
2024/01/27 12:38:47;;;;;;;2.20;2.00;;;8.10;99.90;;;;;;5156862;27;20047;-68
2024/01/27 12:41:12;;;;;;;0.85;0.85;;;7.40;99.90;;;;;;5156799;27;20045;-71
2024/01/27 12:43:38;;;;;;;1.10;1.00;;;7.40;99.90;;;;;;5137596;27;20390;-71
2024/01/27 12:46:04;;;;;;;0.90;0.90;;;8.20;99.90;;;;;;5156516;27;20041;-69
2024/01/27 12:48:30;;;;;;;0.90;0.90;;;7.50;99.90;;;;;;5156959;27;20397;-68
2024/01/27 12:50:56;;;;;;;1.10;1.00;;;8.40;99.90;;;;;;5156521;27;20069;-68
2024/01/27 12:53:22;;;;;;;1.08;1.00;;;7.60;99.90;;;;;;5156779;27;20043;-70